Time;durP1;ratioP1;P1;durP2;ratioP2;P2;SDS_P1;SDS_P2;PMS_P1;PMS_P2;Temp;Humidity;BMP_temperature;BMP_pressure;BME280_temperature;BME280_humidity;BME280_pressure;Samples;Min_cycle;Max_cycle;Signal;HPM_P1;HPM_P2
2022/11/14 00:02:27;;;;;;;24.48;12.77;;;;;;;;;;4898973;29;20498;-59
2022/11/14 00:05:12;;;;;;;20.48;11.10;;;;;;;;;;4899475;29;20525;-58
2022/11/14 00:07:56;;;;;;;27.88;12.07;;;;;;;;;;4898557;29;20054;-61
2022/11/14 00:10:41;;;;;;;26.88;11.77;;;;;;;;;;4899423;29;20059;-60
2022/11/14 00:13:26;;;;;;;26.80;12.20;;;;;;;;;;4897900;29;20063;-60
2022/11/14 00:16:11;;;;;;;22.63;12.25;;;;;;;;;;4899041;29;20414;-60
2022/11/14 00:18:56;;;;;;;27.00;12.80;;;;;;;;;;4899549;29;20108;-61
2022/11/14 00:21:40;;;;;;;21.05;11.38;;;;;;;;;;4897911;29;20055;-61
2022/11/14 00:24:25;;;;;;;21.88;11.77;;;;;;;;;;4899742;29;20058;-61
2022/11/14 00:27:11;;;;;;;21.23;12.48;;;;;;;;;;4899737;29;20536;-60
2022/11/14 00:29:56;;;;;;;23.58;11.75;;;;;;;;;;4911422;29;20101;-60
2022/11/14 00:32:41;;;;;;;27.63;11.70;;;;;;;;;;4898549;29;20421;-60
2022/11/14 00:35:26;;;;;;;16.65;10.15;;;;;;;;;;4911268;29;20059;-61
2022/11/14 00:38:11;;;;;;;15.27;9.80;;;;;;;;;;4899127;29;20525;-60
2022/11/14 00:40:55;;;;;;;13.23;7.78;;;;;;;;;;4899408;29;20410;-60
2022/11/14 00:43:40;;;;;;;10.13;7.07;;;;;;;;;;4898439;29;20499;-61
2022/11/14 00:46:25;;;;;;;13.15;7.80;;;;;;;;;;4898964;29;20055;-60
2022/11/14 00:49:10;;;;;;;12.15;7.57;;;;;;;;;;4898663;29;20064;-60
2022/11/14 00:51:55;;;;;;;15.32;7.35;;;;;;;;;;4898367;29;20413;-62
2022/11/14 00:54:39;;;;;;;15.07;8.02;;;;;;;;;;4898598;29;20059;-61
2022/11/14 00:57:24;;;;;;;14.23;8.70;;;;;;;;;;4898813;29;20052;-62
2022/11/14 01:00:11;;;;;;;20.60;8.88;;;;;;;;;;4896632;29;20104;-61
2022/11/14 01:02:57;;;;;;;16.02;9.02;;;;;;;;;;4897748;29;20543;-61
2022/11/14 01:05:47;;;;;;;23.83;9.60;;;;;;;;;;4898457;29;20067;-61
2022/11/14 01:08:32;;;;;;;21.08;9.65;;;;;;;;;;4898529;29;20055;-61
2022/11/14 01:11:18;;;;;;;22.52;10.35;;;;;;;;;;4898225;29;20159;-61
2022/11/14 01:14:06;;;;;;;21.20;9.80;;;;;;;;;;4897785;29;20059;-61
2022/11/14 01:16:51;;;;;;;16.10;9.65;;;;;;;;;;4910552;29;20146;-60
2022/11/14 01:19:36;;;;;;;20.40;10.23;;;;;;;;;;4897161;29;20054;-60
2022/11/14 01:22:21;;;;;;;21.05;10.20;;;;;;;;;;4897496;29;20062;-61
2022/11/14 01:25:06;;;;;;;18.13;9.68;;;;;;;;;;4898190;29;20063;-60
2022/11/14 01:27:51;;;;;;;16.63;9.45;;;;;;;;;;4898114;29;20059;-61
2022/11/14 01:30:36;;;;;;;17.67;8.90;;;;;;;;;;4897894;29;20135;-61
2022/11/14 01:33:21;;;;;;;20.38;10.63;;;;;;;;;;4896409;29;20064;-61
2022/11/14 01:36:06;;;;;;;16.48;10.10;;;;;;;;;;4897652;29;20184;-61
2022/11/14 01:38:51;;;;;;;16.08;9.88;;;;;;;;;;4897833;29;20055;-61
2022/11/14 01:41:36;;;;;;;15.15;9.05;;;;;;;;;;4897616;29;20059;-62
2022/11/14 01:44:39;;;;;;;14.35;9.02;;;;;;;;;;4897813;29;20067;-61
2022/11/14 01:47:26;;;;;;;15.63;9.27;;;;;;;;;;4897735;29;20139;-60
2022/11/14 01:50:11;;;;;;;18.73;10.18;;;;;;;;;;4897698;29;20177;-60
2022/11/14 01:52:56;;;;;;;14.43;9.13;;;;;;;;;;4896045;29;20520;-61
2022/11/14 01:55:41;;;;;;;16.95;9.52;;;;;;;;;;4897369;29;20052;-61
2022/11/14 01:58:26;;;;;;;15.90;9.77;;;;;;;;;;4897625;29;20132;-61
2022/11/14 02:01:12;;;;;;;16.42;9.77;;;;;;;;;;4897416;29;20071;-59
2022/11/14 02:03:58;;;;;;;16.23;9.93;;;;;;;;;;4897334;29;20462;-60
2022/11/14 02:06:44;;;;;;;18.70;10.52;;;;;;;;;;4897818;29;20147;-59
2022/11/14 02:09:30;;;;;;;17.92;10.52;;;;;;;;;;4909810;29;20200;-60
2022/11/14 02:12:17;;;;;;;14.35;9.40;;;;;;;;;;4896555;29;20055;-60
2022/11/14 02:15:02;;;;;;;16.35;9.65;;;;;;;;;;4897173;29;20076;-59
2022/11/14 02:17:47;;;;;;;15.82;9.77;;;;;;;;;;4898052;29;20052;-60
2022/11/14 02:20:33;;;;;;;15.70;9.82;;;;;;;;;;4897361;29;20132;-59
2022/11/14 02:23:25;;;;;;;16.25;8.98;;;;;;;;;;4896833;29;20059;-60
2022/11/14 02:26:10;;;;;;;17.45;9.00;;;;;;;;;;4897650;29;20445;-60
2022/11/14 02:28:56;;;;;;;19.95;10.32;;;;;;;;;;4897314;29;20529;-60
2022/11/14 02:31:41;;;;;;;21.02;10.38;;;;;;;;;;4896822;29;20104;-60
2022/11/14 02:34:26;;;;;;;16.55;9.70;;;;;;;;;;4897404;29;20060;-60
2022/11/14 02:37:10;;;;;;;18.40;10.60;;;;;;;;;;4897081;29;20068;-60
2022/11/14 02:39:55;;;;;;;18.27;10.15;;;;;;;;;;4897351;29;20143;-60
2022/11/14 02:42:40;;;;;;;19.77;10.82;;;;;;;;;;4896619;29;20087;-60
2022/11/14 02:45:25;;;;;;;22.73;11.27;;;;;;;;;;4897102;29;20128;-60
2022/11/14 02:48:10;;;;;;;21.00;10.80;;;;;;;;;;4897140;29;20067;-60
2022/11/14 02:50:54;;;;;;;21.15;10.25;;;;;;;;;;4897111;29;20532;-60
2022/11/14 02:53:39;;;;;;;20.05;10.52;;;;;;;;;;4896267;29;20238;-60
2022/11/14 02:56:24;;;;;;;22.60;10.60;;;;;;;;;;4896798;29;20052;-60
2022/11/14 02:59:09;;;;;;;17.98;10.23;;;;;;;;;;4896992;29;20064;-61
2022/11/14 03:01:54;;;;;;;23.05;11.10;;;;;;;;;;4895947;29;20059;-60
2022/11/14 03:04:38;;;;;;;23.15;11.38;;;;;;;;;;4896869;29;20564;-60
2022/11/14 03:07:23;;;;;;;17.75;10.40;;;;;;;;;;4896909;29;20104;-59
2022/11/14 03:10:09;;;;;;;23.05;11.50;;;;;;;;;;4897412;29;20132;-60
2022/11/14 03:12:54;;;;;;;20.55;11.23;;;;;;;;;;4896016;29;20052;-60
2022/11/14 03:15:39;;;;;;;21.08;11.68;;;;;;;;;;4896779;29;20177;-60
2022/11/14 03:18:24;;;;;;;22.75;12.45;;;;;;;;;;4896876;29;20638;-60
2022/11/14 03:21:13;;;;;;;21.45;11.65;;;;;;;;;;4895699;29;20063;-60
2022/11/14 03:23:58;;;;;;;22.83;11.88;;;;;;;;;;4898528;29;20048;-60
2022/11/14 03:26:43;;;;;;;22.88;11.27;;;;;;;;;;4900209;29;20420;-60
2022/11/14 03:29:28;;;;;;;20.60;11.00;;;;;;;;;;4900768;29;20055;-60
2022/11/14 03:32:13;;;;;;;19.83;11.40;;;;;;;;;;4899649;29;20064;-61
2022/11/14 03:34:58;;;;;;;21.75;12.45;;;;;;;;;;4899240;29;20055;-61
2022/11/14 03:37:43;;;;;;;19.42;11.35;;;;;;;;;;4900155;29;20530;-59
2022/11/14 03:40:28;;;;;;;21.60;11.65;;;;;;;;;;4900051;29;20435;-60
2022/11/14 03:43:12;;;;;;;22.17;12.20;;;;;;;;;;4899384;29;20143;-60
2022/11/14 03:45:58;;;;;;;23.08;12.15;;;;;;;;;;4899794;29;20096;-61
2022/11/14 03:56:44;;;;;;;22.98;12.00;;;;;;;;;;4897801;29;20056;-60
2022/11/14 03:59:29;;;;;;;21.88;11.93;;;;;;;;;;4897567;29;20547;-59
2022/11/14 04:06:08;;;;;;;18.55;10.45;;;;;;;;;;4898896;29;20063;-59
2022/11/14 04:08:55;;;;;;;19.23;10.52;;;;;;;;;;4899850;29;20064;-60
2022/11/14 04:11:40;;;;;;;20.50;11.38;;;;;;;;;;4898766;29;20059;-60
2022/11/14 04:14:25;;;;;;;20.80;11.27;;;;;;;;;;4899435;29;20797;-60
2022/11/14 04:17:09;;;;;;;21.50;11.98;;;;;;;;;;4899591;29;20047;-60
2022/11/14 04:19:54;;;;;;;21.80;11.80;;;;;;;;;;4912080;29;20055;-60
2022/11/14 04:22:39;;;;;;;21.58;11.80;;;;;;;;;;4898863;29;20561;-60
2022/11/14 04:25:24;;;;;;;21.70;12.68;;;;;;;;;;4899479;29;20063;-61
2022/11/14 04:28:09;;;;;;;24.75;12.48;;;;;;;;;;4899451;29;20180;-60
2022/11/14 04:30:54;;;;;;;22.73;12.38;;;;;;;;;;4899224;29;20059;-60
2022/11/14 04:33:39;;;;;;;26.00;12.95;;;;;;;;;;4898651;29;20079;-60
2022/11/14 04:36:23;;;;;;;24.00;12.82;;;;;;;;;;4898211;29;20056;-61
2022/11/14 04:39:08;;;;;;;27.38;14.48;;;;;;;;;;4897996;29;20055;-61
2022/11/14 04:41:53;;;;;;;25.67;14.30;;;;;;;;;;4898036;29;20189;-61
2022/11/14 04:44:38;;;;;;;29.52;15.38;;;;;;;;;;4898940;29;20124;-60
2022/11/14 04:47:23;;;;;;;28.50;15.02;;;;;;;;;;4898809;29;20059;-61
2022/11/14 04:50:08;;;;;;;23.95;13.93;;;;;;;;;;4898716;29;20087;-61
2022/11/14 04:52:53;;;;;;;23.75;13.52;;;;;;;;;;4898036;29;20123;-60
2022/11/14 04:55:37;;;;;;;26.23;14.88;;;;;;;;;;4898472;29;20199;-61
2022/11/14 04:58:22;;;;;;;29.35;15.35;;;;;;;;;;4898704;29;20108;-61
2022/11/14 05:01:10;;;;;;;29.63;14.95;;;;;;;;;;5286330;23;20265;31
2022/11/14 05:03:55;;;;;;;29.42;14.82;;;;;;;;;;4877290;29;20150;-59
2022/11/14 05:06:40;;;;;;;26.33;14.52;;;;;;;;;;4891776;29;20140;-59
2022/11/14 05:09:25;;;;;;;26.95;14.93;;;;;;;;;;4879533;29;20060;-59
2022/11/14 05:12:10;;;;;;;23.63;14.15;;;;;;;;;;4879050;29;20071;-58
2022/11/14 05:14:55;;;;;;;27.25;15.48;;;;;;;;;;4879697;29;20132;-59
2022/11/14 05:17:39;;;;;;;27.33;15.73;;;;;;;;;;4879727;29;20182;-59
2022/11/14 05:20:24;;;;;;;26.13;14.70;;;;;;;;;;4879627;29;20109;-59
2022/11/14 05:23:17;;;;;;;25.00;14.30;;;;;;;;;;4878899;29;20157;-59
2022/11/14 05:26:03;;;;;;;25.27;14.50;;;;;;;;;;4879705;29;20060;-59
2022/11/14 05:28:48;;;;;;;24.40;14.50;;;;;;;;;;4879407;29;20144;-59
2022/11/14 05:31:32;;;;;;;27.05;15.15;;;;;;;;;;4879336;29;20197;-60
2022/11/14 05:34:17;;;;;;;28.60;15.32;;;;;;;;;;4879507;29;20148;-59
2022/11/14 05:37:02;;;;;;;27.73;15.30;;;;;;;;;;4879246;29;20060;-60
2022/11/14 05:39:47;;;;;;;24.77;14.98;;;;;;;;;;4879448;29;20052;-61
2022/11/14 05:42:32;;;;;;;26.70;14.93;;;;;;;;;;4878387;29;20489;-59
2022/11/14 05:45:17;;;;;;;27.08;15.00;;;;;;;;;;4879171;29;20052;-60
2022/11/14 05:48:02;;;;;;;28.90;16.40;;;;;;;;;;4879035;29;20533;-59
2022/11/14 05:50:47;;;;;;;26.80;15.75;;;;;;;;;;4907540;23;20130;-60
2022/11/14 05:53:32;;;;;;;30.00;15.35;;;;;;;;;;4915182;29;20047;-60
2022/11/14 05:56:17;;;;;;;27.98;16.48;;;;;;;;;;4916317;29;20055;-61
2022/11/14 05:59:02;;;;;;;26.33;15.30;;;;;;;;;;4916474;29;20574;-60
2022/11/14 06:01:47;;;;;;;28.05;16.13;;;;;;;;;;4902989;29;20177;-61
2022/11/14 06:04:32;;;;;;;25.60;15.50;;;;;;;;;;4897185;29;20191;-61
2022/11/14 06:07:16;;;;;;;26.25;15.57;;;;;;;;;;4897343;29;20063;-62
2022/11/14 06:10:04;;;;;;;24.65;14.90;;;;;;;;;;4897497;29;20410;-62
2022/11/14 06:12:50;;;;;;;26.08;15.98;;;;;;;;;;4896720;29;20116;-62
2022/11/14 06:15:35;;;;;;;27.60;16.10;;;;;;;;;;4897025;29;20520;-62
2022/11/14 06:18:19;;;;;;;29.75;16.08;;;;;;;;;;4897349;29;20079;-63
2022/11/14 06:21:04;;;;;;;30.10;16.08;;;;;;;;;;4897678;29;20059;-62
2022/11/14 06:23:49;;;;;;;28.63;16.98;;;;;;;;;;4896822;29;20418;-62
2022/11/14 06:26:34;;;;;;;30.35;17.45;;;;;;;;;;4897355;29;20063;-62
2022/11/14 06:29:19;;;;;;;28.20;16.00;;;;;;;;;;4896768;29;20429;-63
2022/11/14 06:32:05;;;;;;;29.23;17.35;;;;;;;;;;4896413;29;20421;-62
2022/11/14 06:34:50;;;;;;;27.98;16.67;;;;;;;;;;4897159;29;20063;-62
2022/11/14 06:37:36;;;;;;;25.10;16.02;;;;;;;;;;4896778;29;20493;-62
2022/11/14 06:40:21;;;;;;;29.02;16.23;;;;;;;;;;4896941;29;20188;-62
2022/11/14 06:43:06;;;;;;;29.23;16.13;;;;;;;;;;4896505;29;20184;-62
2022/11/14 06:45:54;;;;;;;26.50;16.42;;;;;;;;;;4897048;29;20062;-62
2022/11/14 06:48:39;;;;;;;25.95;16.50;;;;;;;;;;4897141;29;20064;-62
2022/11/14 06:51:24;;;;;;;24.98;15.20;;;;;;;;;;4896732;29;20055;-63
2022/11/14 06:54:12;;;;;;;25.25;15.25;;;;;;;;;;4896788;29;20064;-63
2022/11/14 06:56:57;;;;;;;26.63;15.30;;;;;;;;;;4895773;29;20140;-63
2022/11/14 06:59:42;;;;;;;24.65;15.85;;;;;;;;;;4900295;29;20055;-63
2022/11/14 07:02:27;;;;;;;24.20;14.93;;;;;;;;;;4900373;29;20184;-62
2022/11/14 07:05:12;;;;;;;29.73;13.90;;;;;;;;;;4900508;29;20139;-60
2022/11/14 07:07:57;;;;;;;23.02;14.02;;;;;;;;;;4899702;29;20055;-61
2022/11/14 07:10:42;;;;;;;22.63;14.70;;;;;;;;;;4900705;29;20553;-61
2022/11/14 07:13:26;;;;;;;23.15;14.93;;;;;;;;;;4899821;29;20051;-61
2022/11/14 07:16:11;;;;;;;21.73;13.52;;;;;;;;;;4900628;29;20100;-63
2022/11/14 07:18:57;;;;;;;23.70;14.57;;;;;;;;;;4900296;29;20115;-61
2022/11/14 07:21:42;;;;;;;21.58;13.65;;;;;;;;;;4899388;29;20059;-62
2022/11/14 07:24:27;;;;;;;20.33;12.93;;;;;;;;;;4900444;29;20417;-61
2022/11/14 07:27:12;;;;;;;21.55;13.68;;;;;;;;;;4900431;29;20059;-61
2022/11/14 07:29:57;;;;;;;20.35;13.27;;;;;;;;;;4900402;29;20116;-61
2022/11/14 07:32:41;;;;;;;16.98;11.25;;;;;;;;;;4899741;29;20063;-60
2022/11/14 07:35:26;;;;;;;17.75;11.80;;;;;;;;;;4899257;29;20128;-61
2022/11/14 07:38:11;;;;;;;18.95;12.45;;;;;;;;;;4899250;29;20143;-61
2022/11/14 07:40:57;;;;;;;18.05;12.68;;;;;;;;;;4898675;29;20074;-60
2022/11/14 07:43:44;;;;;;;19.45;12.75;;;;;;;;;;4899661;29;20272;-60
2022/11/14 07:46:28;;;;;;;18.83;12.52;;;;;;;;;;4899946;29;20108;-61
2022/11/14 07:49:13;;;;;;;18.70;12.02;;;;;;;;;;4899671;29;20064;-62
2022/11/14 07:51:58;;;;;;;18.02;11.60;;;;;;;;;;4899180;29;20524;-62
2022/11/14 07:54:43;;;;;;;20.25;12.63;;;;;;;;;;4911796;29;20539;-62
2022/11/14 07:57:27;;;;;;;20.80;13.63;;;;;;;;;;4899228;29;20051;-62
2022/11/14 08:00:12;;;;;;;19.35;12.27;;;;;;;;;;4899705;29;20060;-62
2022/11/14 08:02:57;;;;;;;19.48;12.45;;;;;;;;;;4899199;29;20071;-61
2022/11/14 08:05:42;;;;;;;20.15;11.55;;;;;;;;;;4899548;29;20580;-62
2022/11/14 08:08:27;;;;;;;17.30;12.02;;;;;;;;;;4899441;29;20520;-62
2022/11/14 08:11:12;;;;;;;19.48;11.90;;;;;;;;;;4899333;29;20051;-61
2022/11/14 08:14:17;;;;;;;23.85;13.10;;;;;;;;;;4899603;29;20113;-62
2022/11/14 08:17:02;;;;;;;18.70;11.25;;;;;;;;;;4899234;29;20409;-62
2022/11/14 08:19:47;;;;;;;17.42;11.93;;;;;;;;;;4899000;29;20116;-62
2022/11/14 08:22:32;;;;;;;19.45;11.15;;;;;;;;;;4898649;29;20080;-62
2022/11/14 08:25:17;;;;;;;15.52;10.55;;;;;;;;;;4899093;29;20120;-62
2022/11/14 08:28:02;;;;;;;15.60;10.27;;;;;;;;;;4899293;29;20107;-62
2022/11/14 08:30:47;;;;;;;15.38;11.25;;;;;;;;;;4911324;29;20139;-62
2022/11/14 08:33:31;;;;;;;14.55;10.57;;;;;;;;;;4898650;29;20125;-60
2022/11/14 08:36:17;;;;;;;15.35;10.45;;;;;;;;;;4898809;29;20422;-60
2022/11/14 08:39:02;;;;;;;14.40;10.00;;;;;;;;;;4898952;29;20058;-60
2022/11/14 08:41:47;;;;;;;15.18;10.88;;;;;;;;;;4898687;29;20055;-60
2022/11/14 08:44:32;;;;;;;15.52;10.43;;;;;;;;;;4898147;29;20059;-61
2022/11/14 08:47:17;;;;;;;16.20;10.30;;;;;;;;;;4898612;29;20055;-60
2022/11/14 08:50:02;;;;;;;15.98;10.30;;;;;;;;;;4898823;29;20064;-59
2022/11/14 08:52:50;;;;;;;16.80;11.63;;;;;;;;;;4897467;29;20127;-61
2022/11/14 08:55:35;;;;;;;13.98;9.95;;;;;;;;;;4898414;29;20052;-61
2022/11/14 08:58:20;;;;;;;15.25;11.02;;;;;;;;;;4897556;29;20132;-60
2022/11/14 09:01:06;;;;;;;13.95;9.77;;;;;;;;;;4898406;29;20078;-60
2022/11/14 09:03:50;;;;;;;16.98;10.90;;;;;;;;;;4897935;29;20524;-60
2022/11/14 09:06:45;;;;;;;17.88;10.82;;;;;;;;;;4898300;29;20157;-60
2022/11/14 09:09:30;;;;;;;15.25;10.02;;;;;;;;;;4897432;29;20180;-61
2022/11/14 09:12:16;;;;;;;13.07;9.93;;;;;;;;;;4897875;29;20537;-61
2022/11/14 09:15:01;;;;;;;15.13;9.90;;;;;;;;;;4898559;29;20116;-61
2022/11/14 09:17:46;;;;;;;16.27;10.18;;;;;;;;;;4897162;29;20060;-61
2022/11/14 09:20:31;;;;;;;16.48;10.63;;;;;;;;;;4897969;29;20104;-61
2022/11/14 09:23:24;;;;;;;14.93;9.70;;;;;;;;;;4897929;29;20520;-61
2022/11/14 09:26:09;;;;;;;13.93;9.75;;;;;;;;;;4898252;29;20075;-61
2022/11/14 09:28:54;;;;;;;12.32;8.63;;;;;;;;;;4897813;29;20561;-60
2022/11/14 09:31:38;;;;;;;14.63;9.50;;;;;;;;;;4897452;29;20055;-61
2022/11/14 09:34:23;;;;;;;13.65;9.63;;;;;;;;;;4897626;29;20100;-60
2022/11/14 09:37:08;;;;;;;12.30;9.18;;;;;;;;;;4896937;29;20068;-61
2022/11/14 09:39:53;;;;;;;12.85;9.35;;;;;;;;;;4897959;29;20062;-59
2022/11/14 09:42:50;;;;;;;12.13;8.75;;;;;;;;;;4897439;29;20079;-61
2022/11/14 09:45:39;;;;;;;11.48;8.68;;;;;;;;;;4897547;29;20055;-60
2022/11/14 09:48:26;;;;;;;12.55;9.05;;;;;;;;;;4897928;29;20094;-60
2022/11/14 09:51:22;;;;;;;13.88;8.75;;;;;;;;;;4898029;29;20535;-60
2022/11/14 09:54:07;;;;;;;12.30;8.70;;;;;;;;;;4898131;29;20064;-60
2022/11/14 09:56:52;;;;;;;13.93;9.23;;;;;;;;;;4896409;29;20180;-60
2022/11/14 09:59:37;;;;;;;11.27;8.20;;;;;;;;;;4897728;29;20454;-61
2022/11/14 10:02:36;;;;;;;12.45;9.25;;;;;;;;;;4897167;29;20432;-60
2022/11/14 10:05:22;;;;;;;13.60;10.27;;;;;;;;;;4897454;29;20626;-61
2022/11/14 10:08:33;;;;;;;23.23;10.65;;;;;;;;;;4897587;29;20461;-61
2022/11/14 10:11:22;;;;;;;14.63;9.27;;;;;;;;;;4878557;29;20064;-61
2022/11/14 10:14:17;;;;;;;11.10;8.40;;;;;;;;;;4910063;29;20059;-61
2022/11/14 10:17:07;;;;;;;14.63;10.10;;;;;;;;;;4897205;29;20055;-61
2022/11/14 10:19:59;;;;;;;11.20;8.57;;;;;;;;;;4897267;29;20516;-61
2022/11/14 10:22:50;;;;;;;10.82;8.35;;;;;;;;;;4896898;29;20060;-61
2022/11/14 10:25:44;;;;;;;13.65;8.80;;;;;;;;;;4897202;29;20134;-62
2022/11/14 10:28:29;;;;;;;13.27;8.70;;;;;;;;;;4896469;29;20052;-61
2022/11/14 10:31:18;;;;;;;14.18;9.70;;;;;;;;;;4897300;29;20150;-61
2022/11/14 10:34:08;;;;;;;13.02;9.27;;;;;;;;;;4900826;29;20052;-61
2022/11/14 10:36:53;;;;;;;13.32;8.93;;;;;;;;;;4900875;29;20060;-61
2022/11/14 10:39:51;;;;;;;12.65;9.23;;;;;;;;;;4901217;29;20421;-62
2022/11/14 10:42:38;;;;;;;11.07;8.13;;;;;;;;;;4900300;29;20059;-61
2022/11/14 10:45:39;;;;;;;13.00;9.68;;;;;;;;;;4901119;29;20059;-61
2022/11/14 10:48:28;;;;;;;14.65;9.77;;;;;;;;;;4901009;29;20055;-61
2022/11/14 10:51:14;;;;;;;17.02;11.05;;;;;;;;;;4912909;29;20470;-61
2022/11/14 10:54:05;;;;;;;13.57;9.77;;;;;;;;;;4900522;29;20062;-62
2022/11/14 10:56:51;;;;;;;13.68;9.80;;;;;;;;;;4899480;29;20084;-62
2022/11/14 10:59:37;;;;;;;13.05;9.65;;;;;;;;;;4900532;29;20564;-62
2022/11/14 11:02:21;;;;;;;14.13;9.20;;;;;;;;;;4900169;29;20074;-61
2022/11/14 11:05:16;;;;;;;11.10;8.65;;;;;;;;;;4900917;29;20196;-62
2022/11/14 11:11:28;;;;;;;12.27;9.15;;;;;;;;;;4901383;29;20543;-62
2022/11/14 11:14:15;;;;;;;12.20;9.05;;;;;;;;;;4901183;29;20108;-63
2022/11/14 11:17:09;;;;;;;11.90;8.40;;;;;;;;;;4900793;29;20055;-68
2022/11/14 11:19:54;;;;;;;12.75;8.75;;;;;;;;;;4899890;29;20052;-61
2022/11/14 11:22:41;;;;;;;12.48;8.60;;;;;;;;;;4899552;29;20076;-61
2022/11/14 11:25:27;;;;;;;11.43;8.35;;;;;;;;;;4900828;29;20461;-62
2022/11/14 11:28:19;;;;;;;12.73;8.38;;;;;;;;;;4900432;29;20421;-62
2022/11/14 11:31:05;;;;;;;10.82;8.13;;;;;;;;;;4900184;29;20063;-62
2022/11/14 11:33:50;;;;;;;9.80;7.50;;;;;;;;;;4900114;29;20136;-62
2022/11/14 11:36:39;;;;;;;10.57;8.07;;;;;;;;;;4900473;29;20175;-62
2022/11/14 11:39:28;;;;;;;13.18;8.45;;;;;;;;;;4900453;29;20077;-62
2022/11/14 11:42:17;;;;;;;11.23;8.35;;;;;;;;;;4899556;29;20084;-62
2022/11/14 11:45:04;;;;;;;11.48;8.48;;;;;;;;;;4898237;29;20127;-62
2022/11/14 11:47:53;;;;;;;11.68;8.20;;;;;;;;;;4900141;29;20425;-61
2022/11/14 11:50:39;;;;;;;14.38;9.80;;;;;;;;;;4900011;29;20146;-62
2022/11/14 11:53:35;;;;;;;11.25;8.57;;;;;;;;;;4899295;29;20064;-62
2022/11/14 11:56:23;;;;;;;14.27;8.60;;;;;;;;;;4899906;29;20080;-62
2022/11/14 11:59:17;;;;;;;11.80;8.60;;;;;;;;;;4899372;29;20461;-62
2022/11/14 12:02:22;;;;;;;10.18;7.80;;;;;;;;;;4899089;29;20123;-62
2022/11/14 12:05:10;;;;;;;9.75;7.90;;;;;;;;;;4899697;29;20425;-62
2022/11/14 12:07:58;;;;;;;14.80;8.30;;;;;;;;;;4899777;29;20521;-63
2022/11/14 12:10:44;;;;;;;12.02;8.27;;;;;;;;;;4899665;29;20536;-62
2022/11/14 12:13:29;;;;;;;9.18;7.13;;;;;;;;;;4899158;29;20390;-62
2022/11/14 12:16:25;;;;;;;11.60;6.95;;;;;;;;;;4900030;29;20055;-62
2022/11/14 12:19:28;;;;;;;10.30;7.82;;;;;;;;;;4899373;29;20059;-62
2022/11/14 12:22:28;;;;;;;12.25;8.35;;;;;;;;;;4898660;29;20056;-62
2022/11/14 12:25:22;;;;;;;10.68;7.72;;;;;;;;;;4899364;29;20096;-62
2022/11/14 12:28:16;;;;;;;12.68;8.23;;;;;;;;;;4899134;29;20060;-62
2022/11/14 12:31:04;;;;;;;9.77;7.75;;;;;;;;;;4899142;29;20120;-62
2022/11/14 12:33:52;;;;;;;10.13;7.28;;;;;;;;;;4898662;29;20155;-62
2022/11/14 12:36:38;;;;;;;10.00;7.75;;;;;;;;;;4897971;29;20063;-63
2022/11/14 12:39:24;;;;;;;8.30;6.45;;;;;;;;;;4899414;29;20047;-62
2022/11/14 12:42:14;;;;;;;8.60;7.60;;;;;;;;;;4898637;29;20052;-62
2022/11/14 12:44:59;;;;;;;14.02;7.43;;;;;;;;;;4899507;29;20056;-62
2022/11/14 12:48:03;;;;;;;9.38;7.10;;;;;;;;;;4899078;29;20088;-62
2022/11/14 12:50:48;;;;;;;9.90;6.88;;;;;;;;;;4898862;29;20417;-62
2022/11/14 12:53:37;;;;;;;11.43;8.55;;;;;;;;;;4898745;29;20055;-62
2022/11/14 12:56:27;;;;;;;9.55;7.25;;;;;;;;;;4898764;29;20056;-62
2022/11/14 12:59:27;;;;;;;10.13;7.45;;;;;;;;;;4898281;29;20557;-62
2022/11/14 13:02:31;;;;;;;13.43;7.97;;;;;;;;;;4897944;29;20168;-62
2022/11/14 13:05:28;;;;;;;10.93;7.78;;;;;;;;;;4898779;29;20124;-62
2022/11/14 13:08:26;;;;;;;13.55;8.45;;;;;;;;;;4898537;29;20137;-62
2022/11/14 13:21:44;;;;;;;10.55;8.00;;;;;;;;;;4898427;29;20530;-62
2022/11/14 13:23:48;;;;;;;10.65;8.40;;;;;;;;;;4897785;29;20532;-63
2022/11/14 13:26:33;;;;;;;11.95;8.13;;;;;;;;;;4898032;29;20417;-62
2022/11/14 13:29:37;;;;;;;11.05;8.13;;;;;;;;;;4898087;29;20104;-62
2022/11/14 13:32:40;;;;;;;12.65;8.18;;;;;;;;;;4910158;29;20055;-62
2022/11/14 13:35:38;;;;;;;13.57;7.80;;;;;;;;;;4898090;29;20129;-62
2022/11/14 13:38:26;;;;;;;11.82;8.48;;;;;;;;;;4897821;29;20056;-62
2022/11/14 13:41:20;;;;;;;10.32;7.90;;;;;;;;;;4896820;29;20064;-62
2022/11/14 13:44:17;;;;;;;11.48;7.53;;;;;;;;;;4898020;29;20054;-62
2022/11/14 13:47:17;;;;;;;14.20;8.45;;;;;;;;;;4897950;29;20524;-62
2022/11/14 13:50:25;;;;;;;11.95;8.18;;;;;;;;;;4897974;29;20059;-62
2022/11/14 13:53:22;;;;;;;10.65;7.97;;;;;;;;;;4895898;29;20066;-62
2022/11/14 13:56:15;;;;;;;11.38;8.45;;;;;;;;;;4897681;29;20052;-62
2022/11/14 13:59:26;;;;;;;11.63;7.75;;;;;;;;;;4909573;29;20051;-62
2022/11/14 14:02:46;;;;;;;12.25;7.88;;;;;;;;;;4896886;29;20418;-62
2022/11/14 14:05:50;;;;;;;12.25;8.60;;;;;;;;;;4821659;29;20486;-63
2022/11/14 14:08:41;;;;;;;12.30;8.50;;;;;;;;;;4909283;29;20064;-62
2022/11/14 14:11:34;;;;;;;15.18;10.40;;;;;;;;;;4897217;29;20526;-62
2022/11/14 14:14:58;;;;;;;14.45;8.52;;;;;;;;;;4897436;29;20139;-62
2022/11/14 14:18:02;;;;;;;13.23;9.18;;;;;;;;;;4865613;29;20075;-62
2022/11/14 14:20:51;;;;;;;19.13;11.73;;;;;;;;;;4909411;29;20203;-62
2022/11/14 14:23:49;;;;;;;16.40;9.07;;;;;;;;;;4896756;29;20096;-62
2022/11/14 14:26:54;;;;;;;16.58;8.98;;;;;;;;;;4896075;29;20512;-64
2022/11/14 14:29:48;;;;;;;11.65;8.48;;;;;;;;;;4897161;29;20059;-62
2022/11/14 14:32:33;;;;;;;14.70;8.95;;;;;;;;;;4895785;29;20060;-62
2022/11/14 14:35:20;;;;;;;10.98;7.95;;;;;;;;;;4897104;29;20060;-62
2022/11/14 14:38:09;;;;;;;12.68;8.05;;;;;;;;;;4897113;29;20149;-63
2022/11/14 14:40:54;;;;;;;11.43;8.32;;;;;;;;;;4897017;29;20700;-62
2022/11/14 14:43:40;;;;;;;14.23;8.00;;;;;;;;;;4896762;29;20060;-62
2022/11/14 14:46:27;;;;;;;14.38;9.05;;;;;;;;;;4897180;29;20074;-62
2022/11/14 14:49:17;;;;;;;17.60;9.05;;;;;;;;;;4897052;29;20059;-62
2022/11/14 14:52:17;;;;;;;14.05;9.35;;;;;;;;;;4896394;29;21019;-62
2022/11/14 14:55:05;;;;;;;13.90;7.90;;;;;;;;;;4897415;29;20148;-63
2022/11/14 14:57:50;;;;;;;12.70;9.13;;;;;;;;;;4909234;29;20147;-60
2022/11/14 15:00:35;;;;;;;12.93;9.50;;;;;;;;;;4895980;29;20060;-62
2022/11/14 15:03:21;;;;;;;12.40;8.75;;;;;;;;;;4896764;29;20056;-61
2022/11/14 15:06:21;;;;;;;13.45;8.45;;;;;;;;;;4897011;29;20063;-62
2022/11/14 15:09:10;;;;;;;12.02;8.70;;;;;;;;;;4896953;29;20078;-61
2022/11/14 15:11:57;;;;;;;11.10;8.35;;;;;;;;;;4896284;29;20640;-63
2022/11/14 15:14:42;;;;;;;13.85;9.52;;;;;;;;;;4897402;29;20503;-63
2022/11/14 15:17:28;;;;;;;14.45;8.93;;;;;;;;;;4896765;29;20100;-63
2022/11/14 15:20:21;;;;;;;14.10;9.35;;;;;;;;;;4899248;29;20088;-62
2022/11/14 15:23:09;;;;;;;15.73;10.93;;;;;;;;;;4899887;29;20066;-63
2022/11/14 15:26:01;;;;;;;13.88;9.13;;;;;;;;;;4900414;29;20410;-63
2022/11/14 15:28:46;;;;;;;11.93;8.68;;;;;;;;;;4900251;29;20067;-63
2022/11/14 15:31:33;;;;;;;13.57;8.85;;;;;;;;;;4900042;29;20055;-62
2022/11/14 15:34:28;;;;;;;18.10;8.35;;;;;;;;;;4900206;29;20124;-63
2022/11/14 15:37:15;;;;;;;9.82;7.30;;;;;;;;;;4899188;29;20087;-63
2022/11/14 15:40:19;;;;;;;14.07;9.45;;;;;;;;;;4899831;29;20052;-63
2022/11/14 15:43:24;;;;;;;15.57;9.00;;;;;;;;;;4899448;29;20132;-63
2022/11/14 15:46:33;;;;;;;11.38;7.80;;;;;;;;;;4899727;29;20063;-62
2022/11/14 15:49:20;;;;;;;11.68;8.13;;;;;;;;;;4899695;29;20108;-62
2022/11/14 15:52:15;;;;;;;11.55;8.25;;;;;;;;;;4899263;29;20189;-62
2022/11/14 15:55:01;;;;;;;10.38;7.68;;;;;;;;;;4899914;29;20048;-62
2022/11/14 15:57:46;;;;;;;12.45;7.93;;;;;;;;;;4899737;29;20108;-62
2022/11/14 16:00:51;;;;;;;11.43;8.00;;;;;;;;;;4899606;29;20056;-62
2022/11/14 16:03:36;;;;;;;14.38;7.82;;;;;;;;;;4899370;29;20295;-62
2022/11/14 16:06:21;;;;;;;10.85;7.60;;;;;;;;;;4899417;29;20619;-62
2022/11/14 16:09:10;;;;;;;10.48;7.32;;;;;;;;;;4899642;29;20064;-62
2022/11/14 16:11:55;;;;;;;11.77;6.97;;;;;;;;;;4899200;29;20064;-62
2022/11/14 16:14:40;;;;;;;10.48;7.80;;;;;;;;;;4899388;29;20051;-62
2022/11/14 16:17:25;;;;;;;12.68;8.32;;;;;;;;;;4898480;29;20354;-62
2022/11/14 16:20:14;;;;;;;9.57;7.28;;;;;;;;;;4899342;29;20454;-62
2022/11/14 16:23:00;;;;;;;11.13;6.75;;;;;;;;;;4898788;29;20112;-62
2022/11/14 16:25:45;;;;;;;9.23;6.22;;;;;;;;;;4899605;29;20617;-62
2022/11/14 16:28:30;;;;;;;8.27;5.93;;;;;;;;;;4899663;29;20064;-62
2022/11/14 16:31:16;;;;;;;8.07;6.30;;;;;;;;;;4899082;29;20063;-62
2022/11/14 16:34:01;;;;;;;8.27;6.18;;;;;;;;;;4898808;29;20055;-62
2022/11/14 16:36:47;;;;;;;8.18;5.95;;;;;;;;;;4899404;29;20112;-62
2022/11/14 16:39:32;;;;;;;9.30;7.00;;;;;;;;;;4898038;29;20076;-62
2022/11/14 16:42:17;;;;;;;10.00;6.53;;;;;;;;;;4898352;29;20146;-62
2022/11/14 16:45:02;;;;;;;12.20;6.88;;;;;;;;;;4898972;29;20076;-62
2022/11/14 16:47:48;;;;;;;11.48;6.50;;;;;;;;;;4899257;29;20067;-62
2022/11/14 16:50:33;;;;;;;10.82;6.47;;;;;;;;;;4898807;29;20059;-62